Time;durP1;ratioP1;P1;durP2;ratioP2;P2;SDS_P1;SDS_P2;PMS_P1;PMS_P2;Temp;Humidity;BMP_temperature;BMP_pressure;BME280_temperature;BME280_humidity;BME280_pressure;Samples;Min_cycle;Max_cycle;Signal;HPM_P1;HPM_P2
2022/05/04 00:01:21;;;;;;;15.00;11.05;;;14.60;99.90;;;;;;5017008;28;20084;-71
2022/05/04 00:03:47;;;;;;;15.63;11.50;;;14.60;99.90;;;;;;5020458;28;20037;-71
2022/05/04 00:06:13;;;;;;;14.90;11.27;;;14.60;99.90;;;;;;5018828;28;20042;-72
2022/05/04 00:08:40;;;;;;;14.23;11.20;;;14.50;99.90;;;;;;5004776;28;20103;-71
2022/05/04 00:11:06;;;;;;;15.40;10.88;;;14.50;99.90;;;;;;5024190;28;20405;-72
2022/05/04 00:13:33;;;;;;;14.55;10.52;;;14.50;99.90;;;;;;5020744;28;20180;-71
2022/05/04 00:16:01;;;;;;;18.33;10.82;;;14.50;99.90;;;;;;5001556;28;20041;-72
2022/05/04 00:18:31;;;;;;;15.02;9.95;;;14.50;99.90;;;;;;5002618;28;20041;-72
2022/05/04 00:20:58;;;;;;;13.15;10.80;;;14.40;99.90;;;;;;5010931;28;20080;-72
2022/05/04 00:23:25;;;;;;;14.38;10.57;;;14.40;99.90;;;;;;4996455;28;20068;-72
2022/05/04 00:25:52;;;;;;;16.08;10.27;;;14.30;99.90;;;;;;5017887;28;20037;-71
2022/05/04 00:28:18;;;;;;;13.75;10.10;;;14.30;99.90;;;;;;5002187;28;20493;-71
2022/05/04 00:30:44;;;;;;;16.65;10.27;;;14.20;99.90;;;;;;5025354;28;20060;-71
2022/05/04 00:33:11;;;;;;;15.63;10.32;;;14.30;99.90;;;;;;5019348;28;20420;-72
2022/05/04 00:35:38;;;;;;;12.55;10.02;;;14.30;99.90;;;;;;5026905;28;20044;-71
2022/05/04 00:38:04;;;;;;;13.40;10.07;;;14.30;99.90;;;;;;5001762;28;20045;-72
2022/05/04 00:40:30;;;;;;;12.55;9.18;;;14.30;99.90;;;;;;5022697;28;20029;-72
2022/05/04 00:42:58;;;;;;;14.68;10.30;;;14.30;99.90;;;;;;5003435;28;20065;-72
2022/05/04 00:45:24;;;;;;;12.93;9.60;;;14.30;99.90;;;;;;5022871;28;20064;-72
2022/05/04 00:47:51;;;;;;;18.33;10.15;;;14.30;99.90;;;;;;5020969;28;20142;-72
2022/05/04 00:50:18;;;;;;;17.42;10.02;;;14.30;99.90;;;;;;5019407;28;20037;-72
2022/05/04 00:52:45;;;;;;;17.85;10.25;;;14.20;99.90;;;;;;5019569;28;20080;-72
2022/05/04 00:55:13;;;;;;;12.95;9.30;;;14.20;99.90;;;;;;5019539;28;20110;-72
2022/05/04 01:00:27;;;;;;;12.20;9.52;;;14.20;99.90;;;;;;5019625;28;20040;-72
2022/05/04 01:02:54;;;;;;;15.48;10.10;;;14.20;99.90;;;;;;5004669;28;20049;-71
2022/05/04 01:05:21;;;;;;;12.93;9.73;;;14.20;99.90;;;;;;5017021;28;20392;-72
2022/05/04 01:07:47;;;;;;;14.98;9.43;;;14.20;99.90;;;;;;5019243;28;20038;-72
2022/05/04 01:10:15;;;;;;;11.93;10.05;;;14.20;99.90;;;;;;5020563;28;20054;-72
2022/05/04 01:12:54;;;;;;;11.93;9.38;;;14.20;99.90;;;;;;5025360;28;20042;-71
2022/05/04 01:15:21;;;;;;;11.93;8.68;;;14.10;99.90;;;;;;5020052;28;20096;-71
2022/05/04 01:17:48;;;;;;;15.45;10.00;;;14.10;99.90;;;;;;5009905;28;20144;-72
2022/05/04 01:20:15;;;;;;;13.48;10.25;;;14.20;99.90;;;;;;5019547;28;20033;-71
2022/05/04 01:22:41;;;;;;;13.98;10.32;;;14.20;99.90;;;;;;5020413;28;20042;-72
2022/05/04 01:25:09;;;;;;;14.20;10.10;;;14.20;99.90;;;;;;4999965;28;20038;-72
2022/05/04 01:27:36;;;;;;;11.80;9.50;;;14.10;99.90;;;;;;5023243;28;20120;-73
2022/05/04 01:30:03;;;;;;;14.57;10.65;;;14.00;99.90;;;;;;5009526;28;20037;-72
2022/05/04 01:32:29;;;;;;;12.68;10.00;;;14.00;99.90;;;;;;5017152;28;20117;-72
2022/05/04 01:34:55;;;;;;;14.60;10.23;;;14.00;99.90;;;;;;5006747;28;20397;-72
2022/05/04 01:37:21;;;;;;;15.52;10.52;;;14.00;99.90;;;;;;5019849;28;20048;-71
2022/05/04 01:39:47;;;;;;;13.82;10.35;;;14.10;99.90;;;;;;5022126;28;20072;-71
2022/05/04 01:42:16;;;;;;;13.32;10.10;;;14.00;99.90;;;;;;5019885;28;20100;-72
2022/05/04 01:44:44;;;;;;;17.33;10.68;;;14.10;99.90;;;;;;5017950;28;20531;-72
2022/05/04 01:47:10;;;;;;;13.68;10.18;;;14.10;99.90;;;;;;5004758;28;20036;-72
2022/05/04 01:49:37;;;;;;;13.23;9.45;;;14.10;99.90;;;;;;5003281;28;20033;-71
2022/05/04 01:52:04;;;;;;;12.55;9.88;;;14.20;99.90;;;;;;5022192;28;20052;-72
2022/05/04 01:54:30;;;;;;;15.88;10.00;;;14.10;99.90;;;;;;5007115;28;20046;-72
2022/05/04 01:56:56;;;;;;;14.50;10.07;;;14.10;99.90;;;;;;5002079;28;20053;-72
2022/05/04 01:59:22;;;;;;;13.35;10.27;;;14.00;99.90;;;;;;5018933;28;20166;-72
2022/05/04 02:01:49;;;;;;;13.60;10.30;;;14.00;99.90;;;;;;5003172;28;20560;-72
2022/05/04 02:04:15;;;;;;;14.55;10.77;;;14.10;99.90;;;;;;5018664;28;20033;-74
2022/05/04 02:06:42;;;;;;;15.77;10.68;;;14.10;99.90;;;;;;5001128;28;20073;-71
2022/05/04 02:09:08;;;;;;;21.38;11.40;;;14.10;99.90;;;;;;5018649;28;20037;-71
2022/05/04 02:11:35;;;;;;;16.25;10.95;;;14.10;99.90;;;;;;5020856;28;20144;-73
2022/05/04 02:14:01;;;;;;;14.38;10.65;;;14.10;99.90;;;;;;4995550;28;20072;-71
2022/05/04 02:16:28;;;;;;;17.30;10.48;;;14.00;99.90;;;;;;5019519;28;20033;-72
2022/05/04 02:18:55;;;;;;;15.90;10.85;;;14.00;99.90;;;;;;5019075;28;20068;-72
2022/05/04 02:21:21;;;;;;;15.00;10.90;;;14.00;99.90;;;;;;5005233;28;20038;-71
2022/05/04 02:23:47;;;;;;;15.27;10.98;;;14.00;99.90;;;;;;4988628;28;20136;-72
2022/05/04 02:26:14;;;;;;;18.17;12.18;;;13.90;99.90;;;;;;5017843;28;20489;-72
2022/05/04 02:28:40;;;;;;;13.55;11.45;;;13.90;99.90;;;;;;5021483;28;20038;-72
2022/05/04 02:31:06;;;;;;;15.18;11.68;;;13.80;99.90;;;;;;5016100;28;20498;-72
2022/05/04 02:33:31;;;;;;;16.73;11.30;;;13.80;99.90;;;;;;5020779;28;20048;-72
2022/05/04 02:38:42;;;;;;;14.05;10.38;;;13.70;99.90;;;;;;5021630;28;20051;-72
2022/05/04 02:41:08;;;;;;;12.00;9.65;;;13.60;99.90;;;;;;5020112;28;20108;-72
2022/05/04 02:43:36;;;;;;;13.63;10.18;;;13.60;99.90;;;;;;5000173;28;20689;-72
2022/05/04 02:46:17;;;;;;;12.80;9.95;;;13.60;99.90;;;;;;5000874;28;20595;-73
2022/05/04 02:48:44;;;;;;;15.25;10.85;;;13.50;99.90;;;;;;5021100;28;20077;-72
2022/05/04 02:51:10;;;;;;;14.40;10.25;;;13.50;99.90;;;;;;5019351;28;20033;-73
2022/05/04 02:53:36;;;;;;;13.85;10.35;;;13.40;99.90;;;;;;5006832;28;20049;-73
2022/05/04 02:56:03;;;;;;;13.68;9.45;;;13.50;99.90;;;;;;5006210;28;20120;-71
2022/05/04 02:58:29;;;;;;;13.95;9.20;;;13.40;99.90;;;;;;5017155;28;20039;-72
2022/05/04 03:00:55;;;;;;;11.85;9.30;;;13.50;99.90;;;;;;5022386;28;20107;-72
2022/05/04 03:03:20;;;;;;;12.18;8.85;;;13.60;99.90;;;;;;5015269;28;20354;-71
2022/05/04 03:05:46;;;;;;;14.13;9.30;;;13.50;99.90;;;;;;5020591;28;20038;-72
2022/05/04 03:08:12;;;;;;;12.55;9.05;;;13.50;99.90;;;;;;4997550;28;20049;-72
2022/05/04 03:13:23;;;;;;;10.73;8.60;;;13.40;99.90;;;;;;5016563;28;20099;-71
2022/05/04 03:15:49;;;;;;;15.02;8.82;;;13.40;99.90;;;;;;5016473;28;20045;-71
2022/05/04 03:18:15;;;;;;;12.82;8.82;;;13.40;99.90;;;;;;5019715;28;20141;-72
2022/05/04 03:20:41;;;;;;;9.20;7.70;;;13.40;99.90;;;;;;5016774;28;20128;-71
2022/05/04 03:23:08;;;;;;;11.82;8.35;;;13.40;99.90;;;;;;5001106;28;20477;-72
2022/05/04 03:25:34;;;;;;;12.80;8.10;;;13.40;99.90;;;;;;5001705;28;20084;-71
2022/05/04 03:27:59;;;;;;;11.88;7.82;;;13.40;99.90;;;;;;5021021;28;20042;-70
2022/05/04 03:30:25;;;;;;;9.80;8.07;;;13.40;99.90;;;;;;5019969;28;20045;-71
2022/05/04 03:32:51;;;;;;;12.15;8.13;;;13.40;99.90;;;;;;5016388;28;20033;-71
2022/05/04 03:35:17;;;;;;;11.70;8.23;;;13.40;99.90;;;;;;4996697;28;20354;-71
2022/05/04 03:37:43;;;;;;;10.77;7.68;;;13.40;99.90;;;;;;5023586;28;20448;-71
2022/05/04 03:40:10;;;;;;;14.43;8.13;;;13.40;99.90;;;;;;5020926;28;20095;-72
2022/05/04 03:42:37;;;;;;;12.13;8.43;;;13.30;99.90;;;;;;5022627;28;20030;-71
2022/05/04 03:45:03;;;;;;;13.55;8.15;;;13.40;99.90;;;;;;5007936;28;20116;-72
2022/05/04 03:47:28;;;;;;;11.63;8.07;;;13.30;99.90;;;;;;5004048;28;20052;-71
2022/05/04 03:49:54;;;;;;;13.50;8.80;;;13.30;99.90;;;;;;5002204;28;20481;-70
2022/05/04 03:52:21;;;;;;;11.80;7.65;;;13.30;99.90;;;;;;5020865;28;20089;-71
2022/05/04 03:54:46;;;;;;;9.68;7.57;;;13.20;99.90;;;;;;5002824;28;20057;-71
2022/05/04 03:57:12;;;;;;;10.63;8.00;;;13.20;99.90;;;;;;5021297;28;20045;-71
2022/05/04 03:59:38;;;;;;;12.65;8.50;;;13.30;99.90;;;;;;5020675;28;20040;-72
2022/05/04 04:02:04;;;;;;;10.93;8.02;;;13.30;99.90;;;;;;5018518;28;20496;-71
2022/05/04 04:04:30;;;;;;;15.13;9.07;;;13.30;99.90;;;;;;5004843;28;20076;-72
2022/05/04 04:06:56;;;;;;;11.48;8.23;;;13.30;99.90;;;;;;5022525;28;20536;-72
2022/05/04 04:09:22;;;;;;;15.32;8.30;;;13.40;99.90;;;;;;5017325;28;20505;-72
2022/05/04 04:11:47;;;;;;;14.70;9.80;;;13.50;99.90;;;;;;5023949;28;20077;-72
2022/05/04 04:14:13;;;;;;;13.15;9.45;;;13.50;99.90;;;;;;5005286;28;20065;-72
2022/05/04 04:16:39;;;;;;;14.30;9.73;;;13.50;99.90;;;;;;4996499;28;20042;-71
2022/05/04 04:19:05;;;;;;;13.40;9.48;;;13.50;99.90;;;;;;5021986;28;20045;-73
2022/05/04 04:24:16;;;;;;;15.02;9.85;;;13.70;99.90;;;;;;5025025;28;20043;-72
2022/05/04 04:26:41;;;;;;;13.43;10.57;;;13.70;99.90;;;;;;5022410;28;20066;-72
2022/05/04 04:29:08;;;;;;;14.43;10.38;;;13.80;99.90;;;;;;5020346;28;20080;-70
2022/05/04 04:31:34;;;;;;;17.45;11.68;;;13.90;99.90;;;;;;5011306;28;20041;-71
2022/05/04 04:34:04;;;;;;;12.80;10.40;;;14.00;99.90;;;;;;5021564;28;20447;-72
2022/05/04 04:36:31;;;;;;;14.57;11.15;;;14.10;99.90;;;;;;4986000;28;20037;-72
2022/05/04 04:38:57;;;;;;;14.95;10.80;;;14.10;99.90;;;;;;5021309;28;20072;-72
2022/05/04 04:41:22;;;;;;;12.77;11.25;;;14.20;99.90;;;;;;5024766;28;20073;-71
2022/05/04 04:43:48;;;;;;;15.63;10.60;;;14.20;99.90;;;;;;5021233;28;20053;-72
2022/05/04 04:46:15;;;;;;;17.23;11.23;;;14.30;99.90;;;;;;5023945;28;20061;-73
2022/05/04 04:48:41;;;;;;;12.75;10.23;;;14.30;99.90;;;;;;5022172;28;20037;-72
2022/05/04 04:51:08;;;;;;;18.13;10.43;;;14.40;99.90;;;;;;5006539;28;20052;-72
2022/05/04 04:53:34;;;;;;;13.60;10.60;;;14.40;99.90;;;;;;5004737;28;20060;-73
2022/05/04 04:56:00;;;;;;;15.15;10.45;;;14.50;99.90;;;;;;5008722;28;20038;-72
2022/05/04 04:58:26;;;;;;;12.35;10.35;;;14.50;99.90;;;;;;5025459;28;20033;-72
2022/05/04 05:00:52;;;;;;;15.48;10.30;;;14.50;99.90;;;;;;5023717;28;20476;-72
2022/05/04 05:03:18;;;;;;;14.02;9.63;;;14.60;99.90;;;;;;5007656;28;20042;-72
2022/05/04 05:05:44;;;;;;;12.93;9.70;;;14.60;99.90;;;;;;5022610;28;20044;-72
2022/05/04 05:08:12;;;;;;;14.02;9.57;;;14.60;99.90;;;;;;5023317;28;20044;-73
2022/05/04 05:10:39;;;;;;;12.73;9.30;;;14.60;99.90;;;;;;5024738;28;20497;-72
2022/05/04 05:13:05;;;;;;;12.35;9.18;;;14.70;99.90;;;;;;5017252;28;20084;-73
2022/05/04 05:18:20;;;;;;;13.38;10.02;;;14.70;99.90;;;;;;5024460;28;20108;-72
2022/05/04 05:20:47;;;;;;;12.77;10.20;;;14.80;99.90;;;;;;4995443;28;20065;-72
2022/05/04 05:23:13;;;;;;;12.77;9.70;;;14.90;99.90;;;;;;5000046;28;20081;-72
2022/05/04 05:25:39;;;;;;;11.00;9.65;;;14.90;99.90;;;;;;5004819;28;20046;-73
2022/05/04 05:28:05;;;;;;;14.20;9.38;;;14.90;99.90;;;;;;5020062;28;20084;-72
2022/05/04 05:30:32;;;;;;;12.30;8.40;;;14.90;99.90;;;;;;4993102;28;20037;-72
2022/05/04 05:32:58;;;;;;;11.95;8.63;;;14.90;99.90;;;;;;5007911;28;20481;-73
2022/05/04 05:35:24;;;;;;;12.35;7.60;;;15.00;99.90;;;;;;5018057;28;20037;-72
2022/05/04 05:37:50;;;;;;;11.65;7.00;;;15.00;99.90;;;;;;5024398;28;20427;-74
2022/05/04 05:40:17;;;;;;;10.05;7.05;;;15.00;99.90;;;;;;5019404;28;20041;-72
2022/05/04 05:42:44;;;;;;;10.38;6.97;;;15.00;99.90;;;;;;5023160;28;20033;-71
2022/05/04 05:45:11;;;;;;;13.23;6.65;;;15.10;99.90;;;;;;5017239;28;20458;-74
2022/05/04 05:47:38;;;;;;;9.20;6.85;;;15.10;99.90;;;;;;5021873;28;20033;-72
2022/05/04 05:50:06;;;;;;;7.85;6.72;;;15.10;99.90;;;;;;5001154;28;20088;-71
2022/05/04 05:52:32;;;;;;;10.93;7.25;;;15.10;99.90;;;;;;4994937;28;20034;-72
2022/05/04 05:54:58;;;;;;;9.80;6.93;;;15.10;99.90;;;;;;5003419;28;20041;-72
2022/05/04 05:57:24;;;;;;;8.90;6.05;;;15.30;99.90;;;;;;5018992;28;20033;-72
2022/05/04 05:59:51;;;;;;;8.73;6.28;;;15.30;99.90;;;;;;5006542;28;20052;-72
2022/05/04 06:02:17;;;;;;;12.00;6.47;;;15.40;99.90;;;;;;5016840;28;20041;-74
2022/05/04 06:04:43;;;;;;;12.93;6.90;;;15.40;99.90;;;;;;5007557;28;20630;-72
2022/05/04 06:07:09;;;;;;;9.85;6.50;;;15.40;99.90;;;;;;5004381;28;20076;-75
2022/05/04 06:09:37;;;;;;;8.95;6.07;;;15.40;99.90;;;;;;5020076;28;21785;-75
2022/05/04 06:12:04;;;;;;;8.38;6.03;;;15.50;99.90;;;;;;5021234;28;20037;-73
2022/05/04 06:14:30;;;;;;;9.27;6.30;;;15.50;99.90;;;;;;5022409;28;20493;-73
2022/05/04 06:16:57;;;;;;;8.85;6.57;;;15.50;99.90;;;;;;5012767;28;20548;-73
2022/05/04 06:19:23;;;;;;;10.40;6.05;;;15.50;99.90;;;;;;5017096;28;20045;-73
2022/05/04 06:21:48;;;;;;;8.30;6.65;;;15.60;99.90;;;;;;5022071;28;20163;-73
2022/05/04 06:24:14;;;;;;;10.90;7.55;;;15.60;99.90;;;;;;4999302;28;20132;-75
2022/05/04 06:26:41;;;;;;;9.80;6.03;;;15.60;99.90;;;;;;5022557;28;20124;-73
2022/05/04 06:29:06;;;;;;;8.82;6.22;;;15.60;99.90;;;;;;4997738;28;20190;-74
2022/05/04 06:34:17;;;;;;;11.52;6.60;;;15.70;99.90;;;;;;5020684;28;20084;-74
2022/05/04 06:36:44;;;;;;;12.13;6.45;;;15.70;99.90;;;;;;5002987;28;20528;-75
2022/05/04 06:39:11;;;;;;;10.95;6.50;;;15.80;99.90;;;;;;5000593;28;20488;-73
2022/05/04 06:41:38;;;;;;;11.57;6.35;;;15.80;99.90;;;;;;5020746;28;20381;-75
2022/05/04 06:44:06;;;;;;;11.70;6.38;;;15.80;99.90;;;;;;4983889;28;20049;-74
2022/05/04 06:46:32;;;;;;;10.27;6.20;;;15.80;99.90;;;;;;5007823;28;20048;-75
2022/05/04 06:48:59;;;;;;;12.10;6.15;;;15.90;99.90;;;;;;4999648;28;20144;-73
2022/05/04 06:51:24;;;;;;;9.63;6.95;;;15.90;99.90;;;;;;5007697;28;20084;-74
2022/05/04 06:53:51;;;;;;;15.02;6.55;;;16.00;99.90;;;;;;5008356;28;20544;-75
2022/05/04 06:56:17;;;;;;;7.93;6.18;;;16.10;99.90;;;;;;4992960;28;20121;-75
2022/05/04 06:58:44;;;;;;;7.13;5.43;;;16.20;99.90;;;;;;4979881;28;20132;-76
2022/05/04 07:01:10;;;;;;;8.60;5.85;;;16.30;99.90;;;;;;5000991;28;20052;-75
2022/05/04 07:03:37;;;;;;;14.20;6.28;;;16.30;99.90;;;;;;5008391;28;20034;-74
2022/05/04 07:06:04;;;;;;;7.75;5.55;;;16.30;99.90;;;;;;4995739;28;20045;-73
2022/05/04 07:08:31;;;;;;;10.30;6.00;;;16.40;99.90;;;;;;5025463;28;20104;-75
2022/05/04 07:10:57;;;;;;;9.23;5.50;;;16.40;99.90;;;;;;5022082;28;20048;-74
2022/05/04 07:13:23;;;;;;;8.80;5.70;;;16.40;99.90;;;;;;5023232;28;20116;-74
2022/05/04 07:15:49;;;;;;;11.98;6.00;;;16.50;99.90;;;;;;5010704;28;20508;-73
2022/05/04 07:18:15;;;;;;;11.13;6.00;;;16.50;99.90;;;;;;5006417;28;20045;-75
2022/05/04 07:20:42;;;;;;;10.02;5.95;;;16.60;99.90;;;;;;5003081;28;20038;-74
2022/05/04 07:23:09;;;;;;;7.40;5.68;;;16.60;99.90;;;;;;5009869;28;20096;-73
2022/05/04 07:25:35;;;;;;;10.20;5.68;;;16.60;99.90;;;;;;5021945;28;20465;-73
2022/05/04 07:28:01;;;;;;;9.95;6.03;;;16.70;99.90;;;;;;5019076;28;20037;-72
2022/05/04 07:30:27;;;;;;;11.57;5.45;;;16.70;99.90;;;;;;5020015;28;20099;-73
2022/05/04 07:32:53;;;;;;;6.82;4.95;;;16.70;99.90;;;;;;5025396;28;20033;-72
2022/05/04 07:35:20;;;;;;;10.27;5.60;;;16.80;99.90;;;;;;4986251;28;20466;-73
2022/05/04 07:37:46;;;;;;;8.48;5.38;;;16.80;99.90;;;;;;5006038;28;20034;-73
2022/05/04 07:42:58;;;;;;;11.50;5.93;;;16.90;99.90;;;;;;5027798;28;20389;-73
2022/05/04 07:45:25;;;;;;;7.50;5.55;;;17.00;99.90;;;;;;5002287;28;20037;-73
2022/05/04 07:47:51;;;;;;;7.32;5.47;;;17.00;99.90;;;;;;5003198;28;20064;-73
2022/05/04 07:50:17;;;;;;;9.18;5.60;;;17.10;99.90;;;;;;5023482;28;20068;-74
2022/05/04 07:52:43;;;;;;;10.45;5.82;;;17.10;99.90;;;;;;5005480;28;20083;-74
2022/05/04 07:55:13;;;;;;;8.68;5.55;;;17.20;99.90;;;;;;5024583;28;20159;-74
2022/05/04 07:57:39;;;;;;;7.30;5.55;;;17.20;99.90;;;;;;5006188;28;20042;-74
2022/05/04 08:05:40;;;;;;;9.23;6.03;;;17.60;99.90;;;;;;5023084;28;20045;-77
2022/05/04 08:08:06;;;;;;;9.48;6.13;;;17.70;99.90;;;;;;4983808;28;20034;-75
2022/05/04 08:10:32;;;;;;;8.27;6.05;;;17.60;99.90;;;;;;5009155;28;20496;-75
2022/05/04 08:12:59;;;;;;;11.38;5.60;;;17.70;99.90;;;;;;5021416;28;20073;-75
2022/05/04 08:15:25;;;;;;;9.70;6.00;;;17.70;99.90;;;;;;5023354;28;20037;-76
2022/05/04 08:17:52;;;;;;;10.50;5.95;;;17.80;99.90;;;;;;5022209;28;20040;-74
2022/05/04 08:20:18;;;;;;;9.80;5.63;;;17.90;99.90;;;;;;5020212;28;20026;-73
2022/05/04 08:22:45;;;;;;;10.70;5.97;;;17.90;99.90;;;;;;5007758;28;20033;-73
2022/05/04 08:25:12;;;;;;;9.90;5.80;;;18.00;99.90;;;;;;5021664;28;20045;-74
2022/05/04 08:27:38;;;;;;;10.93;5.35;;;18.00;99.90;;;;;;5020076;28;20030;-73
2022/05/04 08:30:05;;;;;;;9.05;5.10;;;18.10;99.90;;;;;;5024961;28;20094;-74
2022/05/04 08:32:31;;;;;;;7.82;5.53;;;18.30;99.90;;;;;;5022306;28;20041;-74
2022/05/04 08:34:58;;;;;;;9.68;5.18;;;18.40;99.90;;;;;;5023935;28;20067;-74
2022/05/04 08:37:24;;;;;;;8.60;5.05;;;18.60;99.90;;;;;;5018689;28;20490;-72
2022/05/04 08:39:51;;;;;;;10.40;5.60;;;18.60;99.90;;;;;;5014964;28;20037;-76
2022/05/04 08:42:19;;;;;;;7.35;4.70;;;18.70;99.90;;;;;;5001062;28;20405;-73
2022/05/04 08:44:48;;;;;;;8.85;5.40;;;18.80;99.90;;;;;;5002026;28;20524;-75
2022/05/04 08:47:17;;;;;;;10.23;5.30;;;19.10;99.90;;;;;;5021475;28;20087;-74
2022/05/04 08:49:46;;;;;;;13.00;5.30;;;19.10;99.90;;;;;;5019927;28;20416;-75
2022/05/04 08:52:13;;;;;;;10.48;5.13;;;19.10;99.90;;;;;;5008262;28;20033;-74
2022/05/04 08:54:42;;;;;;;7.35;4.90;;;19.20;99.90;;;;;;5006627;28;20680;-74
2022/05/04 08:57:09;;;;;;;8.93;5.20;;;19.30;99.90;;;;;;5008485;28;20216;-74
2022/05/04 08:59:36;;;;;;;8.60;4.72;;;19.50;99.90;;;;;;5022189;28;20123;-74
2022/05/04 09:02:02;;;;;;;8.75;4.38;;;19.50;99.90;;;;;;5007289;28;20112;-73
2022/05/04 09:04:31;;;;;;;12.98;4.80;;;19.40;99.90;;;;;;5009004;28;20405;-73
2022/05/04 09:07:01;;;;;;;8.30;5.07;;;19.40;99.90;;;;;;5020559;28;20133;-74
2022/05/04 09:09:27;;;;;;;11.98;4.85;;;19.60;99.90;;;;;;5002547;28;20084;-73
2022/05/04 09:11:53;;;;;;;10.38;4.90;;;19.60;99.90;;;;;;5020761;28;20041;-74
2022/05/04 09:14:25;;;;;;;8.40;4.60;;;19.70;99.90;;;;;;5025862;28;20381;-73
2022/05/04 09:16:52;;;;;;;9.25;4.35;;;19.60;99.90;;;;;;5015353;28;20065;-76
2022/05/04 09:19:19;;;;;;;7.53;4.10;;;19.60;99.90;;;;;;5000408;28;20052;-74
2022/05/04 09:21:49;;;;;;;10.35;4.10;;;19.60;99.90;;;;;;5020255;28;20088;-73
2022/05/04 09:24:25;;;;;;;6.35;4.05;;;19.70;99.90;;;;;;5008688;28;20045;-74
2022/05/04 09:26:55;;;;;;;7.35;3.42;;;19.70;99.90;;;;;;5004735;28;20034;-72
2022/05/04 09:29:36;;;;;;;7.45;3.50;;;19.80;99.90;;;;;;5018191;28;20125;-74
2022/05/04 09:32:14;;;;;;;7.63;3.65;;;19.80;99.90;;;;;;5007875;28;20116;-74
2022/05/04 09:34:40;;;;;;;11.02;3.88;;;19.80;99.90;;;;;;4989906;28;20038;-74
2022/05/04 09:45:36;;;;;;;10.32;3.65;;;20.10;99.90;;;;;;5017098;28;20052;-73
2022/05/04 09:48:04;;;;;;;7.55;3.85;;;20.20;99.90;;;;;;5002932;28;20032;-74
2022/05/04 09:50:37;;;;;;;6.05;4.00;;;20.30;99.90;;;;;;5022495;28;20044;-75
2022/05/04 09:53:03;;;;;;;5.57;3.88;;;20.30;99.90;;;;;;5007088;28;20103;-75
2022/05/04 09:55:29;;;;;;;5.63;3.85;;;20.40;99.90;;;;;;5016813;28;20026;-74
2022/05/04 09:57:56;;;;;;;7.22;3.85;;;20.40;99.90;;;;;;5016446;28;20671;-74
2022/05/04 10:00:25;;;;;;;8.00;3.92;;;20.40;99.90;;;;;;5001919;28;20042;-75
2022/05/04 10:02:52;;;;;;;5.43;3.70;;;20.60;99.90;;;;;;5005798;28;20392;-73
2022/05/04 10:05:20;;;;;;;10.68;3.58;;;20.50;99.90;;;;;;4997781;28;20030;-73
2022/05/04 10:07:50;;;;;;;7.03;2.88;;;20.50;99.90;;;;;;5023749;28;20927;-73
2022/05/04 10:10:20;;;;;;;6.22;2.90;;;20.60;99.90;;;;;;5011207;28;20590;-74
2022/05/04 10:12:48;;;;;;;6.15;2.90;;;20.70;99.90;;;;;;5021310;28;20055;-73
2022/05/04 10:15:16;;;;;;;9.43;2.95;;;20.60;99.90;;;;;;4986338;28;20080;-73
2022/05/04 10:18:05;;;;;;;9.93;3.28;;;20.80;99.90;;;;;;5009622;28;20037;-73
2022/05/04 10:20:44;;;;;;;6.55;3.08;;;21.00;99.90;;;;;;5012884;28;20034;-74
2022/05/04 10:23:30;;;;;;;5.30;3.20;;;20.90;99.90;;;;;;5007845;28;20054;-74
2022/05/04 10:25:59;;;;;;;8.30;3.17;;;21.30;99.90;;;;;;5019225;28;20078;-73
2022/05/04 10:28:26;;;;;;;7.05;2.95;;;21.70;99.90;;;;;;5019571;28;20034;-73
2022/05/04 10:30:55;;;;;;;8.55;3.60;;;21.80;99.90;;;;;;5024196;28;20481;-72
2022/05/04 10:33:27;;;;;;;6.95;3.05;;;21.90;99.90;;;;;;5002247;28;20484;-73
2022/05/04 10:35:53;;;;;;;7.32;3.25;;;21.90;99.90;;;;;;5015830;28;20054;-74
2022/05/04 10:38:29;;;;;;;5.25;2.95;;;21.80;99.90;;;;;;5006123;28;20034;-74
2022/05/04 10:40:57;;;;;;;5.43;2.97;;;21.90;99.80;;;;;;5018304;28;20036;-75
2022/05/04 10:43:45;;;;;;;10.13;2.97;;;21.90;99.70;;;;;;5019181;28;21169;-75
2022/05/04 10:46:21;;;;;;;7.22;3.05;;;22.20;99.70;;;;;;5018890;28;20040;-74
2022/05/04 10:48:59;;;;;;;9.25;3.47;;;22.30;99.50;;;;;;5000395;28;20065;-73
2022/05/04 10:51:30;;;;;;;5.13;3.00;;;22.50;99.50;;;;;;5019215;28;20044;-74
2022/05/04 10:54:18;;;;;;;6.83;3.50;;;22.50;99.10;;;;;;5017125;28;20044;-72
2022/05/04 10:56:47;;;;;;;10.05;4.18;;;22.60;99.00;;;;;;5018869;28;20769;-73
2022/05/04 10:59:33;;;;;;;13.32;4.93;;;22.70;99.60;;;;;;5003675;28;20034;-73
2022/05/04 11:02:04;;;;;;;16.70;4.80;;;22.70;99.90;;;;;;5001171;28;20045;-75
2022/05/04 11:04:30;;;;;;;10.25;4.88;;;22.50;99.90;;;;;;5019730;28;20080;-75
2022/05/04 11:07:00;;;;;;;12.95;4.82;;;22.30;99.90;;;;;;5004870;28;20124;-76
2022/05/04 11:09:32;;;;;;;7.05;4.30;;;22.40;99.90;;;;;;5009697;28;20491;-74
2022/05/04 11:12:06;;;;;;;7.90;4.10;;;22.50;99.90;;;;;;5024714;28;20064;-74
2022/05/04 11:14:34;;;;;;;10.55;4.32;;;22.60;99.90;;;;;;5019340;28;20109;-73
2022/05/04 11:17:02;;;;;;;8.75;3.95;;;22.90;99.80;;;;;;5017979;28;20046;-74
2022/05/04 11:19:29;;;;;;;7.35;4.20;;;23.00;99.20;;;;;;4969111;28;20030;-74
2022/05/04 11:21:57;;;;;;;11.63;4.80;;;23.20;99.10;;;;;;5000872;28;20064;-74
2022/05/04 11:24:26;;;;;;;12.50;3.97;;;23.40;98.90;;;;;;5021171;28;20049;-74
2022/05/04 11:26:53;;;;;;;8.38;4.15;;;23.40;98.60;;;;;;5010688;28;20041;-72
2022/05/04 11:29:25;;;;;;;7.28;3.50;;;23.30;98.40;;;;;;5008367;28;20068;-75
2022/05/04 11:31:56;;;;;;;6.55;3.42;;;23.20;98.00;;;;;;4996744;28;20129;-77
2022/05/04 11:34:31;;;;;;;5.75;2.85;;;23.20;98.30;;;;;;4989490;28;21585;-76
2022/05/04 11:36:58;;;;;;;6.53;3.00;;;23.30;97.70;;;;;;5006639;28;20050;-72
2022/05/04 11:39:28;;;;;;;7.70;2.78;;;23.20;97.90;;;;;;5009128;28;20038;-73
2022/05/04 11:41:56;;;;;;;7.40;2.40;;;23.30;97.20;;;;;;5005691;28;20122;-74
2022/05/04 11:44:24;;;;;;;4.75;2.28;;;23.30;97.10;;;;;;4993178;28;20046;-72
2022/05/04 11:46:51;;;;;;;4.90;2.15;;;23.30;96.80;;;;;;4996082;28;20064;-72
2022/05/04 11:49:21;;;;;;;6.72;2.90;;;23.40;96.70;;;;;;4993577;28;20425;-72
2022/05/04 11:51:49;;;;;;;5.32;3.05;;;23.30;96.90;;;;;;5022295;28;20179;-80
2022/05/04 11:54:15;;;;;;;5.60;3.38;;;23.30;97.30;;;;;;4992557;28;20045;-73
2022/05/04 11:56:41;;;;;;;6.30;3.10;;;23.40;97.30;;;;;;5001936;28;20046;-73
2022/05/04 11:59:09;;;;;;;8.38;3.40;;;23.50;97.30;;;;;;4991850;28;20045;-74
2022/05/04 12:01:37;;;;;;;7.90;3.47;;;23.70;97.10;;;;;;5015389;28;20142;-73
2022/05/04 12:04:04;;;;;;;7.97;3.25;;;23.90;96.90;;;;;;4990742;28;20116;-73
2022/05/04 12:06:32;;;;;;;8.32;3.03;;;23.80;96.80;;;;;;5024715;28;20041;-74
2022/05/04 12:08:59;;;;;;;8.05;3.35;;;23.70;96.90;;;;;;5004647;28;20038;-73
2022/05/04 12:11:26;;;;;;;7.25;3.28;;;23.70;96.80;;;;;;5017633;28;20048;-74
2022/05/04 12:13:52;;;;;;;6.03;3.13;;;23.70;96.90;;;;;;5028832;28;20472;-73
2022/05/04 12:16:19;;;;;;;7.15;3.85;;;24.00;96.60;;;;;;5009201;28;20046;-73
2022/05/04 12:18:47;;;;;;;7.45;3.70;;;24.40;96.50;;;;;;5024434;28;20148;-73
2022/05/04 12:21:17;;;;;;;5.53;3.10;;;24.70;96.40;;;;;;5004868;28;20055;-73
2022/05/04 12:23:47;;;;;;;7.95;3.75;;;25.10;96.10;;;;;;5009589;28;20069;-73
2022/05/04 12:26:14;;;;;;;8.38;3.97;;;24.80;96.60;;;;;;4999685;28;20030;-75
2022/05/04 12:28:42;;;;;;;7.18;4.40;;;24.90;96.70;;;;;;5020520;28;20509;-73
2022/05/04 12:33:57;;;;;;;7.63;4.30;;;23.90;97.70;;;;;;5018386;28;20494;-74
2022/05/04 12:36:24;;;;;;;7.60;4.40;;;23.70;98.40;;;;;;5021582;28;20104;-73
2022/05/04 12:38:53;;;;;;;8.98;4.55;;;23.30;98.90;;;;;;5021830;28;20339;-73
2022/05/04 12:41:21;;;;;;;5.25;4.40;;;23.40;98.90;;;;;;5021995;28;20049;-73
2022/05/04 12:43:49;;;;;;;8.27;4.80;;;23.50;99.00;;;;;;5003375;28;20072;-72
2022/05/04 12:46:17;;;;;;;10.55;4.70;;;23.50;99.10;;;;;;5021349;28;20041;-73
2022/05/04 12:48:45;;;;;;;6.55;4.50;;;23.80;98.80;;;;;;5019220;28;20049;-74
2022/05/04 12:51:14;;;;;;;8.43;4.38;;;23.90;98.70;;;;;;5003564;28;20438;-73
2022/05/04 12:53:40;;;;;;;7.22;4.57;;;23.70;98.90;;;;;;5002992;28;20064;-72
2022/05/04 12:58:55;;;;;;;9.93;4.65;;;23.30;99.60;;;;;;5021461;28;20199;-72
2022/05/04 13:01:24;;;;;;;10.30;4.53;;;23.40;99.50;;;;;;5020894;28;20505;-73
2022/05/04 13:03:52;;;;;;;6.82;4.22;;;23.70;99.40;;;;;;5011537;28;20126;-74
2022/05/04 13:06:20;;;;;;;7.20;4.53;;;24.00;99.10;;;;;;4996899;28;20038;-73
2022/05/04 13:08:48;;;;;;;13.85;4.55;;;24.30;98.70;;;;;;5023197;28;20073;-74
2022/05/04 13:11:15;;;;;;;9.38;4.47;;;24.50;98.30;;;;;;5007805;28;20033;-72
2022/05/04 13:13:41;;;;;;;11.85;4.70;;;24.50;98.30;;;;;;4999132;28;20689;-73
2022/05/04 13:16:08;;;;;;;13.68;4.90;;;25.00;98.10;;;;;;4999876;28;20038;-73
2022/05/04 13:18:34;;;;;;;11.10;4.45;;;25.00;97.60;;;;;;5001549;28;20381;-72